General Aviation Weather

Text Reports

Enter one or more of the following location identifiers separated by a space:

Zip Code, Four-Character ICAO or Three-Character IATA airport codes.

METAR - Aviation Routine Weather Report
KSHD - Staunton, Virginia
Updated at 6:15 AM GMT on January 28, 2015 (1:15 AM EST):
METAR KSHD 280615Z AUTO 00000KT 10SM CLR M05/M10 A3005 RMK AO2 T10521101
TAF - Terminal Area Forecast
KSHD - Staunton, Virginia
Updated at 6:15 AM GMT on January 28, 2015 (1:15 AM EST):
No TAF is currently available for this location.
Decoded:
No decoded TAF is available.
PIREP - Pilot Weather Report
KSHD - Staunton, Virginia
Updated at 6:15 AM GMT on January 28, 2015 (1:15 AM EST):
No PIREP is currently available for this location.
AIRMET - Airmens Meteorological Information
KSHD - Staunton, Virginia
Updated at 6:15 AM GMT on January 28, 2015 (1:15 AM EST):
No AIRMET is currently available for this location.
SIGMET - Significant Meteorological Information
KSHD - Staunton, Virginia
Updated at 6:15 AM GMT on January 28, 2015 (1:15 AM EST):
No SIGMET is currently available for this location.
NOTAM - Notice to Airmen
KSHD - Staunton, Virginia
Updated at 6:15 AM GMT on January 28, 2015 (1:15 AM EST):
No NOTAM is currently available for this location.
Forecast Area
KSHD - Staunton, Virginia
Updated at 6:15 AM GMT on January 28, 2015 (1:15 AM EST):
No NOTAM is currently available for this location.
Aviation Weather Maps